sensor_id;sensor_type;location;lat;lon;timestamp;temperature;humidity
6439;DHT22;3252;52.540;13.290;2023-02-26T00:11:59;0.60;99.90
6439;DHT22;3252;52.540;13.290;2023-02-26T07:50:19;3.50;99.90
6439;DHT22;3252;52.540;13.290;2023-02-26T07:52:25;3.70;99.90
6439;DHT22;3252;52.540;13.290;2023-02-26T07:54:28;3.90;99.90
6439;DHT22;3252;52.540;13.290;2023-02-26T07:56:33;4.00;99.90
6439;DHT22;3252;52.540;13.290;2023-02-26T07:58:35;4.10;99.40
6439;DHT22;3252;52.540;13.290;2023-02-26T08:00:37;4.30;98.90
6439;DHT22;3252;52.540;13.290;2023-02-26T08:02:40;4.50;98.40
6439;DHT22;3252;52.540;13.290;2023-02-26T08:04:42;4.40;98.60
6439;DHT22;3252;52.540;13.290;2023-02-26T08:06:46;4.10;98.00
6439;DHT22;3252;52.540;13.290;2023-02-26T08:08:48;4.30;99.30
6439;DHT22;3252;52.540;13.290;2023-02-26T08:10:50;4.30;99.50
6439;DHT22;3252;52.540;13.290;2023-02-26T08:12:53;4.40;98.80
6439;DHT22;3252;52.540;13.290;2023-02-26T08:14:55;4.30;99.10
6439;DHT22;3252;52.540;13.290;2023-02-26T08:16:57;4.30;98.90
6439;DHT22;3252;52.540;13.290;2023-02-26T08:19:00;4.20;98.50
6439;DHT22;3252;52.540;13.290;2023-02-26T08:21:02;4.20;98.60
6439;DHT22;3252;52.540;13.290;2023-02-26T08:23:06;4.20;98.30
6439;DHT22;3252;52.540;13.290;2023-02-26T08:25:08;4.20;98.20
6439;DHT22;3252;52.540;13.290;2023-02-26T08:27:10;4.20;97.60
6439;DHT22;3252;52.540;13.290;2023-02-26T08:29:13;4.30;98.00
6439;DHT22;3252;52.540;13.290;2023-02-26T08:31:15;4.20;98.50
6439;DHT22;3252;52.540;13.290;2023-02-26T08:33:17;4.00;96.90
6439;DHT22;3252;52.540;13.290;2023-02-26T08:35:20;4.00;98.00
6439;DHT22;3252;52.540;13.290;2023-02-26T08:37:22;4.10;97.70
6439;DHT22;3252;52.540;13.290;2023-02-26T08:39:26;4.40;97.30
6439;DHT22;3252;52.540;13.290;2023-02-26T08:41:32;4.30;97.00
6439;DHT22;3252;52.540;13.290;2023-02-26T08:43:38;5.10;96.30
6439;DHT22;3252;52.540;13.290;2023-02-26T08:45:40;5.60;95.70
6439;DHT22;3252;52.540;13.290;2023-02-26T08:47:43;5.80;93.30
6439;DHT22;3252;52.540;13.290;2023-02-26T08:49:45;6.10;94.40
6439;DHT22;3252;52.540;13.290;2023-02-26T08:51:47;6.80;92.70
6439;DHT22;3252;52.540;13.290;2023-02-26T08:53:50;7.60;90.90
6439;DHT22;3252;52.540;13.290;2023-02-26T08:55:53;7.30;90.00
6439;DHT22;3252;52.540;13.290;2023-02-26T08:57:55;7.30;85.40
6439;DHT22;3252;52.540;13.290;2023-02-26T08:59:57;7.10;80.50
6439;DHT22;3252;52.540;13.290;2023-02-26T09:01:59;7.40;79.10
6439;DHT22;3252;52.540;13.290;2023-02-26T09:04:02;7.70;85.40
6439;DHT22;3252;52.540;13.290;2023-02-26T09:06:04;7.60;83.60
6439;DHT22;3252;52.540;13.290;2023-02-26T09:08:07;8.30;79.10
6439;DHT22;3252;52.540;13.290;2023-02-26T09:10:12;7.40;75.20
6439;DHT22;3252;52.540;13.290;2023-02-26T09:12:16;6.60;75.10
6439;DHT22;3252;52.540;13.290;2023-02-26T09:14:18;6.30;89.80
6439;DHT22;3252;52.540;13.290;2023-02-26T09:16:20;6.50;88.00
6439;DHT22;3252;52.540;13.290;2023-02-26T09:18:23;7.20;84.00
6439;DHT22;3252;52.540;13.290;2023-02-26T09:20:26;8.60;70.90
6439;DHT22;3252;52.540;13.290;2023-02-26T09:22:28;9.20;66.80
6439;DHT22;3252;52.540;13.290;2023-02-26T09:24:30;10.80;58.60
6439;DHT22;3252;52.540;13.290;2023-02-26T09:26:32;10.90;50.00
6439;DHT22;3252;52.540;13.290;2023-02-26T09:28:36;10.10;49.10
6439;DHT22;3252;52.540;13.290;2023-02-26T09:30:38;10.70;51.90
6439;DHT22;3252;52.540;13.290;2023-02-26T09:32:40;9.40;50.10
6439;DHT22;3252;52.540;13.290;2023-02-26T09:34:42;7.00;60.30
6439;DHT22;3252;52.540;13.290;2023-02-26T09:36:45;5.90;75.70
6439;DHT22;3252;52.540;13.290;2023-02-26T09:38:47;5.80;86.20
6439;DHT22;3252;52.540;13.290;2023-02-26T09:40:53;5.30;89.90
6439;DHT22;3252;52.540;13.290;2023-02-26T09:43:06;5.10;93.20
6439;DHT22;3252;52.540;13.290;2023-02-26T09:45:20;5.10;93.70
6439;DHT22;3252;52.540;13.290;2023-02-26T09:47:29;5.20;93.50
6439;DHT22;3252;52.540;13.290;2023-02-26T09:49:48;5.10;92.60
6439;DHT22;3252;52.540;13.290;2023-02-26T09:51:55;4.90;92.20
6439;DHT22;3252;52.540;13.290;2023-02-26T09:53:59;4.40;93.00
6439;DHT22;3252;52.540;13.290;2023-02-26T09:56:07;4.30;94.20
6439;DHT22;3252;52.540;13.290;2023-02-26T09:58:16;4.50;95.30
6439;DHT22;3252;52.540;13.290;2023-02-26T10:00:26;4.40;95.30
6439;DHT22;3252;52.540;13.290;2023-02-26T10:02:37;4.30;96.00
6439;DHT22;3252;52.540;13.290;2023-02-26T10:04:49;4.60;97.10
6439;DHT22;3252;52.540;13.290;2023-02-26T10:07:02;4.50;96.50
6439;DHT22;3252;52.540;13.290;2023-02-26T10:09:21;4.30;95.00
6439;DHT22;3252;52.540;13.290;2023-02-26T10:11:30;4.40;95.30
6439;DHT22;3252;52.540;13.290;2023-02-26T10:13:37;4.50;97.90
6439;DHT22;3252;52.540;13.290;2023-02-26T10:15:43;4.40;95.70
6439;DHT22;3252;52.540;13.290;2023-02-26T10:17:53;4.30;94.90
6439;DHT22;3252;52.540;13.290;2023-02-26T10:20:03;4.50;96.40
6439;DHT22;3252;52.540;13.290;2023-02-26T10:22:14;4.70;96.10
6439;DHT22;3252;52.540;13.290;2023-02-26T10:24:21;4.60;95.70
6439;DHT22;3252;52.540;13.290;2023-02-26T10:26:27;4.60;95.40
6439;DHT22;3252;52.540;13.290;2023-02-26T10:28:40;4.70;95.10
6439;DHT22;3252;52.540;13.290;2023-02-26T10:30:51;4.60;96.30
6439;DHT22;3252;52.540;13.290;2023-02-26T10:33:02;4.50;95.90
6439;DHT22;3252;52.540;13.290;2023-02-26T10:35:12;4.50;94.50
6439;DHT22;3252;52.540;13.290;2023-02-26T10:37:18;4.40;94.80
6439;DHT22;3252;52.540;13.290;2023-02-26T10:39:30;4.90;97.30
6439;DHT22;3252;52.540;13.290;2023-02-26T10:41:35;6.20;93.90
6439;DHT22;3252;52.540;13.290;2023-02-26T10:43:40;6.70;76.90
6439;DHT22;3252;52.540;13.290;2023-02-26T10:45:56;6.70;85.10
6439;DHT22;3252;52.540;13.290;2023-02-26T10:48:12;8.40;65.00
6439;DHT22;3252;52.540;13.290;2023-02-26T10:50:20;9.50;57.20
6439;DHT22;3252;52.540;13.290;2023-02-26T10:52:24;10.30;52.50
6439;DHT22;3252;52.540;13.290;2023-02-26T10:54:30;12.80;47.50
6439;DHT22;3252;52.540;13.290;2023-02-26T10:56:34;12.30;42.20
6439;DHT22;3252;52.540;13.290;2023-02-26T10:58:37;10.00;43.30
6439;DHT22;3252;52.540;13.290;2023-02-26T11:00:41;9.20;46.80
6439;DHT22;3252;52.540;13.290;2023-02-26T11:02:47;8.70;47.70
6439;DHT22;3252;52.540;13.290;2023-02-26T11:04:51;9.90;46.60
6439;DHT22;3252;52.540;13.290;2023-02-26T11:06:57;10.50;41.10
6439;DHT22;3252;52.540;13.290;2023-02-26T11:09:00;10.20;41.40
6439;DHT22;3252;52.540;13.290;2023-02-26T11:11:04;10.30;43.30
6439;DHT22;3252;52.540;13.290;2023-02-26T11:13:07;10.10;41.20
6439;DHT22;3252;52.540;13.290;2023-02-26T11:15:13;10.20;40.60
6439;DHT22;3252;52.540;13.290;2023-02-26T11:17:18;10.10;43.90
6439;DHT22;3252;52.540;13.290;2023-02-26T11:19:27;9.80;44.30
6439;DHT22;3252;52.540;13.290;2023-02-26T11:21:34;10.50;46.40
6439;DHT22;3252;52.540;13.290;2023-02-26T11:23:37;9.40;44.90
6439;DHT22;3252;52.540;13.290;2023-02-26T11:25:41;9.00;44.00
6439;DHT22;3252;52.540;13.290;2023-02-26T11:27:47;11.30;41.50
6439;DHT22;3252;52.540;13.290;2023-02-26T11:29:54;14.30;38.50
6439;DHT22;3252;52.540;13.290;2023-02-26T11:31:58;16.20;35.50
6439;DHT22;3252;52.540;13.290;2023-02-26T11:34:03;14.70;33.40
6439;DHT22;3252;52.540;13.290;2023-02-26T11:36:10;12.80;35.10
6439;DHT22;3252;52.540;13.290;2023-02-26T11:38:18;12.30;40.10
6439;DHT22;3252;52.540;13.290;2023-02-26T11:40:26;11.00;40.60
6439;DHT22;3252;52.540;13.290;2023-02-26T11:42:34;9.10;42.00
6439;DHT22;3252;52.540;13.290;2023-02-26T11:44:40;9.10;44.10
6439;DHT22;3252;52.540;13.290;2023-02-26T11:46:45;9.80;45.50
6439;DHT22;3252;52.540;13.290;2023-02-26T11:48:48;13.10;42.20
6439;DHT22;3252;52.540;13.290;2023-02-26T11:50:54;16.40;37.90
6439;DHT22;3252;52.540;13.290;2023-02-26T11:53:05;17.30;34.70
6439;DHT22;3252;52.540;13.290;2023-02-26T11:55:18;12.80;32.90
6439;DHT22;3252;52.540;13.290;2023-02-26T11:57:23;10.90;37.00
6439;DHT22;3252;52.540;13.290;2023-02-26T11:59:30;9.50;40.00
6439;DHT22;3252;52.540;13.290;2023-02-26T12:01:34;7.70;41.50
6439;DHT22;3252;52.540;13.290;2023-02-26T12:03:44;6.70;43.90
6439;DHT22;3252;52.540;13.290;2023-02-26T12:05:46;6.50;47.10
6439;DHT22;3252;52.540;13.290;2023-02-26T12:07:49;5.50;47.10
6439;DHT22;3252;52.540;13.290;2023-02-26T12:09:52;5.20;51.30
6439;DHT22;3252;52.540;13.290;2023-02-26T12:12:15;7.20;52.30
6439;DHT22;3252;52.540;13.290;2023-02-26T12:14:36;10.20;43.10
6439;DHT22;3252;52.540;13.290;2023-02-26T12:16:48;12.50;38.80
6439;DHT22;3252;52.540;13.290;2023-02-26T12:19:02;13.10;36.20
6439;DHT22;3252;52.540;13.290;2023-02-26T12:21:23;11.30;36.70
6439;DHT22;3252;52.540;13.290;2023-02-26T12:23:40;10.00;40.60
6439;DHT22;3252;52.540;13.290;2023-02-26T12:26:01;9.40;42.50
6439;DHT22;3252;52.540;13.290;2023-02-26T12:28:18;8.60;43.30
6439;DHT22;3252;52.540;13.290;2023-02-26T12:33:09;6.70;45.20
6439;DHT22;3252;52.540;13.290;2023-02-26T12:35:42;6.50;50.70
6439;DHT22;3252;52.540;13.290;2023-02-26T12:37:54;6.70;52.70
6439;DHT22;3252;52.540;13.290;2023-02-26T12:40:12;6.20;52.80
6439;DHT22;3252;52.540;13.290;2023-02-26T12:42:24;5.50;53.10
6439;DHT22;3252;52.540;13.290;2023-02-26T12:45:05;5.30;55.20
6439;DHT22;3252;52.540;13.290;2023-02-26T12:47:22;5.20;55.90
6439;DHT22;3252;52.540;13.290;2023-02-26T12:49:49;6.10;51.80
6439;DHT22;3252;52.540;13.290;2023-02-26T12:54:45;10.60;40.50
6439;DHT22;3252;52.540;13.290;2023-02-26T12:57:07;13.40;39.40
6439;DHT22;3252;52.540;13.290;2023-02-26T12:59:35;14.20;35.20
6439;DHT22;3252;52.540;13.290;2023-02-26T13:01:51;16.20;35.50
6439;DHT22;3252;52.540;13.290;2023-02-26T13:04:18;15.50;33.40
6439;DHT22;3252;52.540;13.290;2023-02-26T13:06:43;13.70;34.20
6439;DHT22;3252;52.540;13.290;2023-02-26T13:08:53;10.70;35.50
6439;DHT22;3252;52.540;13.290;2023-02-26T13:11:08;9.40;40.50
6439;DHT22;3252;52.540;13.290;2023-02-26T13:13:33;8.20;40.80
6439;DHT22;3252;52.540;13.290;2023-02-26T13:15:48;6.60;44.00
6439;DHT22;3252;52.540;13.290;2023-02-26T13:17:58;5.80;48.20
6439;DHT22;3252;52.540;13.290;2023-02-26T13:20:10;5.40;52.50
6439;DHT22;3252;52.540;13.290;2023-02-26T13:22:19;4.80;57.30
6439;DHT22;3252;52.540;13.290;2023-02-26T13:24:23;4.50;60.00
6439;DHT22;3252;52.540;13.290;2023-02-26T13:26:28;4.40;60.40
6439;DHT22;3252;52.540;13.290;2023-02-26T13:28:38;4.50;58.50
6439;DHT22;3252;52.540;13.290;2023-02-26T13:30:48;4.40;62.90
6439;DHT22;3252;52.540;13.290;2023-02-26T13:32:54;4.20;53.90
6439;DHT22;3252;52.540;13.290;2023-02-26T13:35:00;4.20;57.20
6439;DHT22;3252;52.540;13.290;2023-02-26T13:37:05;4.10;55.00
6439;DHT22;3252;52.540;13.290;2023-02-26T13:39:27;4.30;60.60
6439;DHT22;3252;52.540;13.290;2023-02-26T13:41:34;4.50;62.80
6439;DHT22;3252;52.540;13.290;2023-02-26T13:43:53;4.60;61.00
6439;DHT22;3252;52.540;13.290;2023-02-26T13:46:11;4.70;58.30
6439;DHT22;3252;52.540;13.290;2023-02-26T13:48:22;4.50;53.70
6439;DHT22;3252;52.540;13.290;2023-02-26T13:50:39;4.60;60.60
6439;DHT22;3252;52.540;13.290;2023-02-26T13:52:50;4.80;64.80
6439;DHT22;3252;52.540;13.290;2023-02-26T13:54:54;4.60;53.40
6439;DHT22;3252;52.540;13.290;2023-02-26T13:57:08;4.50;53.50
6439;DHT22;3252;52.540;13.290;2023-02-26T13:59:29;4.40;53.80
6439;DHT22;3252;52.540;13.290;2023-02-26T14:01:34;4.40;61.10
6439;DHT22;3252;52.540;13.290;2023-02-26T14:03:50;4.30;55.90
6439;DHT22;3252;52.540;13.290;2023-02-26T14:05:56;4.30;54.80
6439;DHT22;3252;52.540;13.290;2023-02-26T14:08:17;4.30;53.70
6439;DHT22;3252;52.540;13.290;2023-02-26T14:10:24;4.30;59.10
6439;DHT22;3252;52.540;13.290;2023-02-26T14:12:44;4.40;56.00
6439;DHT22;3252;52.540;13.290;2023-02-26T14:17:36;4.30;57.30
6439;DHT22;3252;52.540;13.290;2023-02-26T14:19:40;4.50;56.10
6439;DHT22;3252;52.540;13.290;2023-02-26T14:21:48;4.60;58.90
6439;DHT22;3252;52.540;13.290;2023-02-26T14:23:53;4.70;63.20
6439;DHT22;3252;52.540;13.290;2023-02-26T14:26:04;4.90;61.90
6439;DHT22;3252;52.540;13.290;2023-02-26T14:28:33;4.90;62.60
6439;DHT22;3252;52.540;13.290;2023-02-26T14:30:42;5.10;62.00
6439;DHT22;3252;52.540;13.290;2023-02-26T14:32:53;5.10;59.20
6439;DHT22;3252;52.540;13.290;2023-02-26T14:34:58;4.90;59.40
6439;DHT22;3252;52.540;13.290;2023-02-26T14:37:07;4.80;55.40
6439;DHT22;3252;52.540;13.290;2023-02-26T14:39:21;4.60;56.50
6439;DHT22;3252;52.540;13.290;2023-02-26T14:41:27;4.30;55.20
6439;DHT22;3252;52.540;13.290;2023-02-26T14:43:35;4.30;57.60
6439;DHT22;3252;52.540;13.290;2023-02-26T14:45:39;4.20;57.80
6439;DHT22;3252;52.540;13.290;2023-02-26T14:47:45;4.00;58.70
6439;DHT22;3252;52.540;13.290;2023-02-26T14:49:52;3.80;61.00
6439;DHT22;3252;52.540;13.290;2023-02-26T14:52:13;3.70;65.40
6439;DHT22;3252;52.540;13.290;2023-02-26T14:54:36;3.70;62.40
6439;DHT22;3252;52.540;13.290;2023-02-26T14:56:51;3.70;63.30
6439;DHT22;3252;52.540;13.290;2023-02-26T14:59:05;3.70;63.20
6439;DHT22;3252;52.540;13.290;2023-02-26T15:01:19;3.60;65.10
6439;DHT22;3252;52.540;13.290;2023-02-26T15:03:51;3.60;70.60
6439;DHT22;3252;52.540;13.290;2023-02-26T15:06:17;3.50;69.40
6439;DHT22;3252;52.540;13.290;2023-02-26T15:08:36;3.50;66.30
6439;DHT22;3252;52.540;13.290;2023-02-26T15:10:52;3.50;64.60
6439;DHT22;3252;52.540;13.290;2023-02-26T15:13:13;3.50;64.60
6439;DHT22;3252;52.540;13.290;2023-02-26T15:15:26;3.40;73.10
6439;DHT22;3252;52.540;13.290;2023-02-26T15:17:43;3.40;71.20
6439;DHT22;3252;52.540;13.290;2023-02-26T15:19:59;3.50;66.50
6439;DHT22;3252;52.540;13.290;2023-02-26T15:22:20;3.60;71.30
6439;DHT22;3252;52.540;13.290;2023-02-26T15:24:26;3.60;69.60
6439;DHT22;3252;52.540;13.290;2023-02-26T15:26:31;3.70;70.90
6439;DHT22;3252;52.540;13.290;2023-02-26T15:28:36;3.70;62.40
6439;DHT22;3252;52.540;13.290;2023-02-26T15:30:47;3.80;62.60
6439;DHT22;3252;52.540;13.290;2023-02-26T15:32:55;3.90;67.80
6439;DHT22;3252;52.540;13.290;2023-02-26T15:34:59;3.90;60.60
6439;DHT22;3252;52.540;13.290;2023-02-26T15:37:02;3.90;58.80
6439;DHT22;3252;52.540;13.290;2023-02-26T15:39:06;3.80;57.80
6439;DHT22;3252;52.540;13.290;2023-02-26T15:41:10;3.90;62.70
6439;DHT22;3252;52.540;13.290;2023-02-26T15:43:15;3.90;70.20
6439;DHT22;3252;52.540;13.290;2023-02-26T15:45:27;4.00;70.40
6439;DHT22;3252;52.540;13.290;2023-02-26T15:47:32;4.00;70.50
6439;DHT22;3252;52.540;13.290;2023-02-26T15:49:37;4.00;77.10
6439;DHT22;3252;52.540;13.290;2023-02-26T15:51:40;4.10;78.90
6439;DHT22;3252;52.540;13.290;2023-02-26T15:53:48;4.10;77.80
6439;DHT22;3252;52.540;13.290;2023-02-26T15:55:55;4.10;75.10
6439;DHT22;3252;52.540;13.290;2023-02-26T15:57:59;4.10;78.30
6439;DHT22;3252;52.540;13.290;2023-02-26T16:00:06;4.10;76.60
6439;DHT22;3252;52.540;13.290;2023-02-26T16:02:13;4.10;77.20
6439;DHT22;3252;52.540;13.290;2023-02-26T16:04:19;4.10;73.30
6439;DHT22;3252;52.540;13.290;2023-02-26T16:06:24;4.00;70.40
6439;DHT22;3252;52.540;13.290;2023-02-26T16:08:26;3.90;71.00
6439;DHT22;3252;52.540;13.290;2023-02-26T16:10:35;3.80;76.20
6439;DHT22;3252;52.540;13.290;2023-02-26T16:12:42;3.80;73.90
6439;DHT22;3252;52.540;13.290;2023-02-26T16:14:51;3.80;73.50
6439;DHT22;3252;52.540;13.290;2023-02-26T16:16:55;3.70;75.10
6439;DHT22;3252;52.540;13.290;2023-02-26T16:18:58;3.70;75.40
6439;DHT22;3252;52.540;13.290;2023-02-26T16:21:01;3.70;74.30
6439;DHT22;3252;52.540;13.290;2023-02-26T16:23:10;3.70;76.50
6439;DHT22;3252;52.540;13.290;2023-02-26T16:25:16;3.70;74.70
6439;DHT22;3252;52.540;13.290;2023-02-26T16:27:20;3.60;75.20
6439;DHT22;3252;52.540;13.290;2023-02-26T16:29:28;3.60;77.30
6439;DHT22;3252;52.540;13.290;2023-02-26T16:31:31;3.60;77.40
6439;DHT22;3252;52.540;13.290;2023-02-26T16:33:36;3.40;78.60
6439;DHT22;3252;52.540;13.290;2023-02-26T16:35:43;3.40;78.20
6439;DHT22;3252;52.540;13.290;2023-02-26T16:37:46;3.30;80.50
6439;DHT22;3252;52.540;13.290;2023-02-26T16:39:53;3.20;81.50
6439;DHT22;3252;52.540;13.290;2023-02-26T16:42:08;3.20;83.90
6439;DHT22;3252;52.540;13.290;2023-02-26T16:44:42;3.10;84.60
6439;DHT22;3252;52.540;13.290;2023-02-26T16:46:46;3.10;85.90
6439;DHT22;3252;52.540;13.290;2023-02-26T16:48:50;3.10;87.30
6439;DHT22;3252;52.540;13.290;2023-02-26T16:50:57;3.10;86.00
6439;DHT22;3252;52.540;13.290;2023-02-26T16:53:05;3.10;86.60
6439;DHT22;3252;52.540;13.290;2023-02-26T16:55:10;3.00;87.90
6439;DHT22;3252;52.540;13.290;2023-02-26T16:57:22;3.00;88.80
6439;DHT22;3252;52.540;13.290;2023-02-26T16:59:30;3.00;90.00
6439;DHT22;3252;52.540;13.290;2023-02-26T17:01:38;2.90;90.60
6439;DHT22;3252;52.540;13.290;2023-02-26T17:03:42;2.90;90.10
6439;DHT22;3252;52.540;13.290;2023-02-26T17:05:53;2.90;90.00
6439;DHT22;3252;52.540;13.290;2023-02-26T17:08:00;2.90;91.50
6439;DHT22;3252;52.540;13.290;2023-02-26T17:10:17;2.90;90.50
6439;DHT22;3252;52.540;13.290;2023-02-26T17:12:28;2.90;92.40
6439;DHT22;3252;52.540;13.290;2023-02-26T17:14:36;2.90;91.70
6439;DHT22;3252;52.540;13.290;2023-02-26T17:16:40;2.90;91.00
6439;DHT22;3252;52.540;13.290;2023-02-26T17:18:42;2.90;92.10
6439;DHT22;3252;52.540;13.290;2023-02-26T17:20:45;2.90;93.10
6439;DHT22;3252;52.540;13.290;2023-02-26T17:22:47;2.90;92.70
6439;DHT22;3252;52.540;13.290;2023-02-26T17:24:50;2.90;91.90
6439;DHT22;3252;52.540;13.290;2023-02-26T17:26:53;2.90;91.10
6439;DHT22;3252;52.540;13.290;2023-02-26T17:28:56;2.90;92.10
6439;DHT22;3252;52.540;13.290;2023-02-26T17:30:59;2.90;92.70
6439;DHT22;3252;52.540;13.290;2023-02-26T17:33:02;2.90;93.40
6439;DHT22;3252;52.540;13.290;2023-02-26T17:35:05;2.90;92.60
6439;DHT22;3252;52.540;13.290;2023-02-26T17:37:09;2.80;92.80
6439;DHT22;3252;52.540;13.290;2023-02-26T17:39:12;2.80;93.30
6439;DHT22;3252;52.540;13.290;2023-02-26T17:41:16;2.70;93.40
6439;DHT22;3252;52.540;13.290;2023-02-26T17:43:19;2.70;93.00
6439;DHT22;3252;52.540;13.290;2023-02-26T17:45:21;2.60;92.80
6439;DHT22;3252;52.540;13.290;2023-02-26T17:47:25;2.70;92.90
6439;DHT22;3252;52.540;13.290;2023-02-26T17:49:27;2.60;92.70
6439;DHT22;3252;52.540;13.290;2023-02-26T17:51:30;2.60;92.80
6439;DHT22;3252;52.540;13.290;2023-02-26T17:53:32;2.60;93.00
6439;DHT22;3252;52.540;13.290;2023-02-26T17:55:40;2.50;93.30
6439;DHT22;3252;52.540;13.290;2023-02-26T17:57:43;2.50;93.50
6439;DHT22;3252;52.540;13.290;2023-02-26T17:59:47;2.50;94.20
6439;DHT22;3252;52.540;13.290;2023-02-26T18:01:49;2.50;94.30
6439;DHT22;3252;52.540;13.290;2023-02-26T18:03:54;2.50;94.90
6439;DHT22;3252;52.540;13.290;2023-02-26T18:05:57;2.50;94.80
6439;DHT22;3252;52.540;13.290;2023-02-26T18:07:59;2.40;94.30
6439;DHT22;3252;52.540;13.290;2023-02-26T18:10:02;2.40;94.30
6439;DHT22;3252;52.540;13.290;2023-02-26T18:12:12;2.40;95.00
6439;DHT22;3252;52.540;13.290;2023-02-26T18:14:15;2.40;94.60
6439;DHT22;3252;52.540;13.290;2023-02-26T18:16:20;2.30;94.30
6439;DHT22;3252;52.540;13.290;2023-02-26T18:18:23;2.20;94.30
6439;DHT22;3252;52.540;13.290;2023-02-26T18:20:27;2.20;94.10
6439;DHT22;3252;52.540;13.290;2023-02-26T18:22:29;2.20;94.30
6439;DHT22;3252;52.540;13.290;2023-02-26T18:24:32;2.20;95.60
6439;DHT22;3252;52.540;13.290;2023-02-26T18:26:34;2.20;95.10
6439;DHT22;3252;52.540;13.290;2023-02-26T18:28:36;2.10;94.70
6439;DHT22;3252;52.540;13.290;2023-02-26T18:30:38;2.10;93.70
6439;DHT22;3252;52.540;13.290;2023-02-26T18:32:43;2.10;94.10
6439;DHT22;3252;52.540;13.290;2023-02-26T18:34:45;2.10;94.80
6439;DHT22;3252;52.540;13.290;2023-02-26T18:36:49;2.00;94.60
6439;DHT22;3252;52.540;13.290;2023-02-26T18:38:51;2.00;93.50
6439;DHT22;3252;52.540;13.290;2023-02-26T18:41:27;2.00;93.60
6439;DHT22;3252;52.540;13.290;2023-02-26T18:43:36;1.90;93.90
6439;DHT22;3252;52.540;13.290;2023-02-26T18:45:43;1.90;94.00
6439;DHT22;3252;52.540;13.290;2023-02-26T18:47:49;1.90;94.40
6439;DHT22;3252;52.540;13.290;2023-02-26T18:49:56;1.80;93.90
6439;DHT22;3252;52.540;13.290;2023-02-26T18:52:14;1.80;94.50
6439;DHT22;3252;52.540;13.290;2023-02-26T18:54:28;1.70;94.30
6439;DHT22;3252;52.540;13.290;2023-02-26T18:56:32;1.70;95.10
6439;DHT22;3252;52.540;13.290;2023-02-26T18:58:35;1.70;95.10
6439;DHT22;3252;52.540;13.290;2023-02-26T19:00:40;1.70;94.80
6439;DHT22;3252;52.540;13.290;2023-02-26T19:02:43;1.60;94.80
6439;DHT22;3252;52.540;13.290;2023-02-26T19:04:46;1.60;94.90
6439;DHT22;3252;52.540;13.290;2023-02-26T19:06:54;1.60;95.10
6439;DHT22;3252;52.540;13.290;2023-02-26T19:09:04;1.60;95.50
6439;DHT22;3252;52.540;13.290;2023-02-26T19:11:09;1.60;95.30
6439;DHT22;3252;52.540;13.290;2023-02-26T19:13:12;1.60;96.00
6439;DHT22;3252;52.540;13.290;2023-02-26T19:15:19;1.50;96.30
6439;DHT22;3252;52.540;13.290;2023-02-26T19:17:27;1.60;96.60
6439;DHT22;3252;52.540;13.290;2023-02-26T19:19:29;1.60;96.00
6439;DHT22;3252;52.540;13.290;2023-02-26T19:21:38;1.50;95.90
6439;DHT22;3252;52.540;13.290;2023-02-26T19:23:41;1.50;96.60
6439;DHT22;3252;52.540;13.290;2023-02-26T19:25:46;1.50;96.70
6439;DHT22;3252;52.540;13.290;2023-02-26T19:27:53;1.50;96.20
6439;DHT22;3252;52.540;13.290;2023-02-26T19:29:56;1.50;96.70
6439;DHT22;3252;52.540;13.290;2023-02-26T19:32:02;1.40;97.20
6439;DHT22;3252;52.540;13.290;2023-02-26T19:34:19;1.40;97.00
6439;DHT22;3252;52.540;13.290;2023-02-26T19:36:25;1.30;97.00
6439;DHT22;3252;52.540;13.290;2023-02-26T19:38:36;1.30;97.00
6439;DHT22;3252;52.540;13.290;2023-02-26T19:40:41;1.30;97.10
6439;DHT22;3252;52.540;13.290;2023-02-26T19:42:47;1.20;98.20
6439;DHT22;3252;52.540;13.290;2023-02-26T19:44:52;1.20;99.20
6439;DHT22;3252;52.540;13.290;2023-02-26T19:47:09;1.10;99.00
6439;DHT22;3252;52.540;13.290;2023-02-26T19:49:20;1.10;99.20
6439;DHT22;3252;52.540;13.290;2023-02-26T19:51:26;1.00;99.20
6439;DHT22;3252;52.540;13.290;2023-02-26T19:53:29;1.00;98.80
6439;DHT22;3252;52.540;13.290;2023-02-26T19:55:36;0.90;98.50
6439;DHT22;3252;52.540;13.290;2023-02-26T19:57:39;0.90;98.40
6439;DHT22;3252;52.540;13.290;2023-02-26T19:59:44;0.80;98.50
6439;DHT22;3252;52.540;13.290;2023-02-26T20:01:47;0.70;98.60
6439;DHT22;3252;52.540;13.290;2023-02-26T20:03:50;0.70;98.90
6439;DHT22;3252;52.540;13.290;2023-02-26T20:05:56;0.70;99.60
6439;DHT22;3252;52.540;13.290;2023-02-26T20:07:59;0.70;99.90
6439;DHT22;3252;52.540;13.290;2023-02-26T20:10:02;0.70;99.90
6439;DHT22;3252;52.540;13.290;2023-02-26T20:12:06;0.60;99.90
6439;DHT22;3252;52.540;13.290;2023-02-26T20:14:11;0.60;99.90
6439;DHT22;3252;52.540;13.290;2023-02-26T20:16:23;0.60;99.90
6439;DHT22;3252;52.540;13.290;2023-02-26T20:18:38;0.50;99.90
6439;DHT22;3252;52.540;13.290;2023-02-26T20:20:47;0.50;99.90
6439;DHT22;3252;52.540;13.290;2023-02-26T20:23:01;0.50;99.90
6439;DHT22;3252;52.540;13.290;2023-02-26T20:25:20;0.50;99.90
6439;DHT22;3252;52.540;13.290;2023-02-26T20:27:28;0.50;99.90
6439;DHT22;3252;52.540;13.290;2023-02-26T20:29:32;0.50;99.90
6439;DHT22;3252;52.540;13.290;2023-02-26T20:31:36;0.50;99.90
6439;DHT22;3252;52.540;13.290;2023-02-26T20:33:42;0.50;99.90
6439;DHT22;3252;52.540;13.290;2023-02-26T20:35:45;0.40;99.90
6439;DHT22;3252;52.540;13.290;2023-02-26T20:37:48;0.40;99.90
6439;DHT22;3252;52.540;13.290;2023-02-26T20:39:50;0.40;99.90
6439;DHT22;3252;52.540;13.290;2023-02-26T20:41:56;0.40;99.90
6439;DHT22;3252;52.540;13.290;2023-02-26T20:44:03;0.40;99.90
6439;DHT22;3252;52.540;13.290;2023-02-26T20:46:06;0.40;99.90
6439;DHT22;3252;52.540;13.290;2023-02-26T20:48:11;0.30;99.90
6439;DHT22;3252;52.540;13.290;2023-02-26T20:50:17;0.30;99.90
6439;DHT22;3252;52.540;13.290;2023-02-26T20:52:19;0.30;99.90
6439;DHT22;3252;52.540;13.290;2023-02-26T20:54:24;0.20;99.90
6439;DHT22;3252;52.540;13.290;2023-02-26T20:56:27;0.30;99.90
6439;DHT22;3252;52.540;13.290;2023-02-26T20:58:31;0.30;99.90
6439;DHT22;3252;52.540;13.290;2023-02-26T21:00:33;0.30;99.90
6439;DHT22;3252;52.540;13.290;2023-02-26T21:02:53;0.30;99.90
6439;DHT22;3252;52.540;13.290;2023-02-26T21:05:18;0.30;99.90
6439;DHT22;3252;52.540;13.290;2023-02-26T21:07:34;0.30;99.90
6439;DHT22;3252;52.540;13.290;2023-02-26T21:09:38;0.30;99.90
6439;DHT22;3252;52.540;13.290;2023-02-26T21:12:03;0.40;99.90
6439;DHT22;3252;52.540;13.290;2023-02-26T21:14:30;0.40;99.90
6439;DHT22;3252;52.540;13.290;2023-02-26T21:19:21;0.40;99.90
6439;DHT22;3252;52.540;13.290;2023-02-26T21:21:25;0.40;99.90
6439;DHT22;3252;52.540;13.290;2023-02-26T21:23:31;0.50;99.90
6439;DHT22;3252;52.540;13.290;2023-02-26T21:25:40;0.50;99.90
6439;DHT22;3252;52.540;13.290;2023-02-26T21:27:46;0.50;99.90
6439;DHT22;3252;52.540;13.290;2023-02-26T21:29:49;0.50;99.90
6439;DHT22;3252;52.540;13.290;2023-02-26T21:31:52;0.60;99.90
6439;DHT22;3252;52.540;13.290;2023-02-26T21:33:57;0.60;99.90
6439;DHT22;3252;52.540;13.290;2023-02-26T21:36:01;0.60;99.90
6439;DHT22;3252;52.540;13.290;2023-02-26T21:38:08;0.60;99.90
6439;DHT22;3252;52.540;13.290;2023-02-26T21:40:14;0.60;99.90
6439;DHT22;3252;52.540;13.290;2023-02-26T21:42:19;0.60;99.90
6439;DHT22;3252;52.540;13.290;2023-02-26T21:44:22;0.60;99.90
6439;DHT22;3252;52.540;13.290;2023-02-26T21:46:25;0.60;99.90
6439;DHT22;3252;52.540;13.290;2023-02-26T21:48:27;0.60;99.90
6439;DHT22;3252;52.540;13.290;2023-02-26T21:50:30;0.50;99.90